Racecast

Ashley Silveira

Ponderosa (OR) · 12 · CVCCA D3SJS D3 · Compare head to head

Athlete rating 120.6 2011 XC season
Best race 128.3 XC
Races 70
Seasons 5 2008 — 2012

RankedNation #12260·CA #1997·CA D3 #696·SJS #170·SJS D3 #62·CVC #33·Team #12 ?

Speed rating — all races

Cross Country

XC speed rating

2011 XC 118.2

Ponderosa (OR) · Grade 12

Date Meet Event Result Place Rating Difficulty PR/SR Flags
2011-11-11 Willow Hills Reservoir Course 5000m 21:51 47th · 5th on team 118.4 +0.045 CSR
2011-11-05 Calaveras County Fairgrounds 4828m 20:25 28th · 4th on team 123.1 +0.065 ★PR ★CR SR CSR RSR
2011-10-08 Woodward Park 5000m 21:18 103rd · 5th on team 117.9 +0.013 SR CSR
2011-09-24 Stanford University Golf Course 5000m 22:12 167th · 5th on team 111.7 +0.002 SR CSR
2011-09-16 North Tahoe HS 5300m 26:23.9 20th · 3rd on team 118.4 +0.200 SR CSR
2011-09-03 Lagoon Valley Park 4828m 20:57.2 18th · 4th on team 119.9 +0.056 ★CR SR CSR RSR

2010 XC 121.3

Ponderosa (OR) · Grade 11

Date Meet Event Result Place Rating Difficulty PR/SR Flags
2010-11-27 Woodward Park 5000m 20:05 128th · 3rd on team 124.7 +0.013 SR CSR
2010-11-13 Willow Hills Reservoir Course 5000m 20:22 19th · 3rd on team 127.2 +0.045 SR CSR RSR
2010-11-06 Calaveras County Fairgrounds 4828m 20:46 28th · 3rd on team 123.1 +0.065 SR CSR RSR
2010-10-30 Willow Hills Reservoir Course 5000m 21:20 22nd · 3rd on team 120.8 +0.045 CSR
2010-10-16 Willow Hills Reservoir Course 5000m 21:44.6 54th · 3rd on team 119.5 +0.045 CSR
2010-10-09 Woodward Park 5000m 20:40 68th · 3rd on team 121.8 +0.013 SR CSR RSR
2010-10-06 Granite Park 4828m 20:53 23rd · 3rd on team 115.9 +0.012 ★CR SR CSR
2010-09-25 Stanford University Golf Course 5000m 21:08 69th · 3rd on team 119.2 +0.002 ★CR SR CSR
2010-09-17 North Tahoe HS 5300m 26:15 30th · 3rd on team 119.6 +0.200 ★PR ★CR SR CSR RSR

2009 XC 123.0

Ponderosa (OR) · Grade 10

Date Meet Event Result Place Rating Difficulty PR/SR Flags
2009-11-14 Willow Hills Reservoir Course 5000m 21:08 22nd · 2nd on team 123.8 +0.045 SR CSR RSR
2009-11-07 Calaveras County Fairgrounds 4828m 20:44 23rd · 2nd on team 123.3 +0.065 PR CR SR CSR RSR
2009-10-17 Willow Hills Reservoir Course 5000m 21:33.6 19th · 2nd on team 121.8 +0.045 SR CSR RSR

2008 XC 127.5

Ponderosa (OR) · Grade 9

Date Meet Event Result Place Rating Difficulty PR/SR Flags
2008-11-29 Woodward Park 5000m 19:41 93rd · 2nd on team 128.3 +0.013 ★PR ★CR ★R SR CSR RSR
2008-10-18 Willow Hills Reservoir Course 5000m 20:21.7 12th · 2nd on team 127.7 +0.045 ★CR R CSR RSR
2008-10-11 Woodward Park 5000m 19:52 14th · 3rd on team 126.6 +0.013 PR CR R SR CSR RSR

Track & Field

TF speed rating

2012 TF

Ponderosa (OR) · Grade 12

Date Meet Event Result Place Rating Difficulty PR/SR Flags
2012-05-16 Sac-Joaquin Division I Trials 300mh 50.86 21st · 1st on team -0.033
2012-05-10 Delta River League Varsity Championships 100mh 18.8 15th · 4th on team -0.022 ★PR SR
2012-05-10 Delta River League Varsity Championships 300mh 49.26 4th · 1st on team -0.022 ★PR SR
2012-04-25 Pleasant Grove/Ponderosa/Sheldon 300mh 50.84 1st · 1st on team -0.031 PR SR
2012-04-25 Pleasant Grove/Ponderosa/Sheldon 100mh 19.44 1st · 1st on team -0.031
2012-04-18 Delta River League Meet-Folsom vs Ponderosa 300mh 52.14 1st · 1st on team -0.022 PR SR
2012-04-18 Delta River League Meet-Folsom vs Ponderosa 100mh 19.74 4th · 3rd on team -0.022
2012-04-18 Delta River League Meet-Folsom vs Ponderosa 400m 1:08.14 4th · 2nd on team -0.022
2012-04-18 Delta River League Meet-Folsom vs Ponderosa 3200m 15:07.1 4th · 4th on team -0.022 SR
2012-04-14 Depth Charge 400m 1:10.7 4th · 1st on team -0.020
2012-04-14 Depth Charge 300mh 52.39 6th · 1st on team -0.020 SR
2012-04-14 Depth Charge 100mh 19.65 2nd · 1st on team -0.020
2012-03-31 Ron Ruptier Memorial Invite (1st Annual) 300mh 56.36 2nd · 1st on team -0.022
2012-03-31 Ron Ruptier Memorial Invite (1st Annual) 100mh 19.94 3rd · 2nd on team -0.022
2012-03-31 Ron Ruptier Memorial Invite (1st Annual) 400m 1:11.04 7th · 2nd on team -0.022
2012-03-28 Oak Ridge vs Ponderosa 100mh 19.84 7th · 4th on team -0.018
2012-03-28 Oak Ridge vs Ponderosa 300mh 52.44 3rd · 2nd on team -0.018 SR
2012-03-28 Oak Ridge vs Ponderosa 400m 1:07.64 4th · 2nd on team -0.018 ★PR SR
2012-03-21 Jesuit at Ponderosa 300mh 52.7 1st · 1st on team -0.022 SR
2012-03-21 Jesuit at Ponderosa 100mh 20.49 7th · 3rd on team -0.022
2012-03-07 Bella Vista - Ponderosa Dual 100mh 19.37 6th · 2nd on team -0.036 PR SR
2012-03-07 Bella Vista - Ponderosa Dual 300mh 57.07 3rd · 2nd on team -0.036 SR

2011 TF 114.8

Ponderosa (OR) · Grade 11

Date Meet Event Result Place Rating Difficulty PR/SR Flags
2011-04-13 Jesuit, St. Francis v. Oak Ridge, Ponderosa 300mh 52.17 2nd · 1st on team -0.022 PR SR
2011-04-09 Lancer Invitational 300mh 53.13 3rd · 2nd on team -0.031
2011-04-09 Lancer Invitational 3200m 12:41.71 5th · 3rd on team 115.6 -0.031 SR RSR
2011-04-02 Bella Vista Bronco Invitational 300mh 52.41 7th · 1st on team -0.036 PR SR
2011-03-30 Sheldon, Jesuit, St. Francis, Ponderosa 1600m 6:01.67 9th · 4th on team 115.1 -0.020 SR RSR
2011-03-30 Sheldon, Jesuit, St. Francis, Ponderosa 300mh 53.17 3rd · 2nd on team -0.020 PR SR
2011-03-30 Sheldon, Jesuit, St. Francis, Ponderosa 3200m 13:06.92 5th · 3rd on team 113.7 -0.020 SR

2010 TF 116.8

Ponderosa (OR) · Grade 10

Date Meet Event Result Place Rating Difficulty PR/SR Flags
2010-05-14 SVC League Finals 3200m 12:49.32 8th · 1st on team 114.9 -0.031
2010-05-14 SVC League Finals 1600m 5:48 7th · 2nd on team 117.9 -0.031
2010-04-30 Cougar Twilite Invitational 1600m 5:48.41 6th · 2nd on team 119.4 -0.018
2010-04-28 Galt @ Ponderosa SVC League Meet 3200m 13:03.8 2nd · 2nd on team 113.6 -0.022
2010-04-28 Galt @ Ponderosa SVC League Meet 300mh 56.34 3rd · 3rd on team -0.022
2010-04-28 Galt @ Ponderosa SVC League Meet 1600m 5:45.9 2nd · 2nd on team 120.2 -0.022 RSR
2010-04-21 Race results → 1600m 5:48.1 3rd · 3rd on team 117.7
2010-04-21 Race results → 300mh 56.04 4th · 4th on team PR SR
2010-04-21 Race results → 3200m 12:49.6 2nd · 2nd on team 114.7
2010-04-10 Bella Vista Invitational 1600m 5:42.83 19th · 2nd on team 119.3 -0.036 SR RSR
2010-04-10 Bella Vista Invitational 3200m 12:34.08 18th · 2nd on team 116.4 -0.036 SR
2010-03-10 Race results → 1600m 6:01 3rd · 3rd on team 113.5 SR RSR

2009 TF 118.2

Ponderosa (OR) · Grade 9

Date Meet Event Result Place Rating Difficulty PR/SR Flags
2009-05-15 SVC League Finals 3200m 12:35.46 6th · 1st on team 118.2 -0.031
2009-05-15 SVC League Finals 1600m 5:41.49 7th · 1st on team 120.5 -0.031
2009-04-22 PHS v.s Cordova 1600m 5:49.72 3rd · 3rd on team 118.0 -0.031
2009-04-22 PHS v.s Cordova 3200m 13:18.28 1st · 1st on team 112.4 -0.031
2009-03-28 Bella Vista Bronco Invitational 1600m 5:35.12 10th · 1st on team 122.1 -0.036 ★PR SR RSR
2009-03-28 Bella Vista Bronco Invitational 3200m 12:17.03 4th · 1st on team 120.5 -0.036 ★PR SR
2009-03-04 Bella Vista - Ponderosa Dual 1600m 5:49.73 2nd · 1st on team 117.4 -0.036 PR SR RSR
2009-03-04 Bella Vista - Ponderosa Dual 3200m 12:46.04 2nd · 1st on team 116.0 -0.036 PR SR